sensor_id;sensor_type;location;lat;lon;timestamp;pressure;altitude;pressure_sealevel;temperature;humidity
40872;BME280;26591;43.264;26.940;2022-10-16T00:00:54;99739.63;;;12.16;64.30
40872;BME280;26591;43.264;26.940;2022-10-16T00:03:20;99742.13;;;12.18;64.29
40872;BME280;26591;43.264;26.940;2022-10-16T00:05:45;99752.75;;;12.18;63.72
40872;BME280;26591;43.264;26.940;2022-10-16T00:08:11;99752.78;;;12.26;63.40
40872;BME280;26591;43.264;26.940;2022-10-16T00:11:13;99744.25;;;12.14;63.73
40872;BME280;26591;43.264;26.940;2022-10-16T00:13:41;99746.72;;;12.08;63.25
40872;BME280;26591;43.264;26.940;2022-10-16T00:16:07;99753.69;;;12.09;63.57
40872;BME280;26591;43.264;26.940;2022-10-16T00:18:33;99746.47;;;12.19;63.22
40872;BME280;26591;43.264;26.940;2022-10-16T00:21:16;99757.38;;;12.16;62.66
40872;BME280;26591;43.264;26.940;2022-10-16T00:23:44;99755.06;;;12.21;62.56
40872;BME280;26591;43.264;26.940;2022-10-16T00:26:16;99764.00;;;12.12;62.48
40872;BME280;26591;43.264;26.940;2022-10-16T00:28:41;99766.84;;;12.18;62.29
40872;BME280;26591;43.264;26.940;2022-10-16T00:31:09;99762.19;;;11.94;62.34
40872;BME280;26591;43.264;26.940;2022-10-16T00:33:37;99765.13;;;11.83;62.70
40872;BME280;26591;43.264;26.940;2022-10-16T00:36:04;99765.09;;;12.01;62.63
40872;BME280;26591;43.264;26.940;2022-10-16T00:38:31;99763.94;;;11.77;62.27
40872;BME280;26591;43.264;26.940;2022-10-16T00:40:56;99759.25;;;11.71;62.31
40872;BME280;26591;43.264;26.940;2022-10-16T00:43:52;99766.69;;;11.67;62.51
40872;BME280;26591;43.264;26.940;2022-10-16T00:46:26;99759.81;;;11.83;62.33
40872;BME280;26591;43.264;26.940;2022-10-16T00:49:06;99755.94;;;11.69;62.59
40872;BME280;26591;43.264;26.940;2022-10-16T00:51:37;99765.31;;;11.63;62.34
40872;BME280;26591;43.264;26.940;2022-10-16T00:54:04;99767.25;;;11.53;63.20
40872;BME280;26591;43.264;26.940;2022-10-16T00:56:36;99769.97;;;11.43;63.07
40872;BME280;26591;43.264;26.940;2022-10-16T00:59:06;99770.06;;;11.51;62.62
40872;BME280;26591;43.264;26.940;2022-10-16T01:01:33;99770.56;;;11.55;62.46
40872;BME280;26591;43.264;26.940;2022-10-16T01:04:05;99764.59;;;11.53;62.36
40872;BME280;26591;43.264;26.940;2022-10-16T01:06:38;99766.94;;;11.56;62.31
40872;BME280;26591;43.264;26.940;2022-10-16T01:09:23;99768.22;;;11.52;61.85
40872;BME280;26591;43.264;26.940;2022-10-16T01:12:18;99760.75;;;11.47;61.95
40872;BME280;26591;43.264;26.940;2022-10-16T01:14:58;99771.56;;;11.54;61.90
40872;BME280;26591;43.264;26.940;2022-10-16T01:17:35;99773.53;;;11.52;61.30
40872;BME280;26591;43.264;26.940;2022-10-16T01:20:32;99775.91;;;11.63;61.19
40872;BME280;26591;43.264;26.940;2022-10-16T01:28:09;99776.03;;;11.35;61.50
40872;BME280;26591;43.264;26.940;2022-10-16T01:30:37;99785.63;;;11.54;61.68
40872;BME280;26591;43.264;26.940;2022-10-16T01:33:27;99788.06;;;11.48;60.90
40872;BME280;26591;43.264;26.940;2022-10-16T01:36:06;99788.53;;;11.43;61.11
40872;BME280;26591;43.264;26.940;2022-10-16T01:38:37;99784.69;;;11.37;61.33
40872;BME280;26591;43.264;26.940;2022-10-16T01:41:15;99784.63;;;11.29;61.06
40872;BME280;26591;43.264;26.940;2022-10-16T01:43:46;99785.91;;;11.25;61.55
40872;BME280;26591;43.264;26.940;2022-10-16T01:46:16;99790.91;;;11.28;61.14
40872;BME280;26591;43.264;26.940;2022-10-16T01:48:43;99790.06;;;11.09;61.83
40872;BME280;26591;43.264;26.940;2022-10-16T01:51:11;99792.31;;;11.04;62.11
40872;BME280;26591;43.264;26.940;2022-10-16T01:53:39;99791.19;;;11.25;61.75
40872;BME280;26591;43.264;26.940;2022-10-16T01:56:09;99788.69;;;11.05;62.11
40872;BME280;26591;43.264;26.940;2022-10-16T01:58:46;99799.09;;;11.17;62.09
40872;BME280;26591;43.264;26.940;2022-10-16T02:01:16;99794.22;;;11.12;61.58
40872;BME280;26591;43.264;26.940;2022-10-16T02:03:44;99794.31;;;11.20;62.31
40872;BME280;26591;43.264;26.940;2022-10-16T02:06:11;99790.75;;;11.29;62.28
40872;BME280;26591;43.264;26.940;2022-10-16T02:08:37;99792.88;;;11.26;61.93
40872;BME280;26591;43.264;26.940;2022-10-16T02:11:06;99793.53;;;11.46;61.51
40872;BME280;26591;43.264;26.940;2022-10-16T02:13:45;99783.47;;;11.32;61.26
40872;BME280;26591;43.264;26.940;2022-10-16T02:16:13;99783.25;;;11.25;61.93
40872;BME280;26591;43.264;26.940;2022-10-16T02:18:39;99788.31;;;11.36;61.22
40872;BME280;26591;43.264;26.940;2022-10-16T02:23:51;99788.50;;;11.17;62.23
40872;BME280;26591;43.264;26.940;2022-10-16T02:26:28;99790.00;;;11.01;61.96
40872;BME280;26591;43.264;26.940;2022-10-16T02:29:00;99792.94;;;10.98;62.03
40872;BME280;26591;43.264;26.940;2022-10-16T02:31:32;99800.59;;;11.19;62.23
40872;BME280;26591;43.264;26.940;2022-10-16T02:34:02;99798.75;;;11.02;62.30
40872;BME280;26591;43.264;26.940;2022-10-16T02:36:30;99802.97;;;10.76;62.70
40872;BME280;26591;43.264;26.940;2022-10-16T02:38:57;99798.06;;;10.99;62.77
40872;BME280;26591;43.264;26.940;2022-10-16T02:41:25;99791.66;;;11.02;62.30
40872;BME280;26591;43.264;26.940;2022-10-16T02:43:51;99797.56;;;10.96;62.22
40872;BME280;26591;43.264;26.940;2022-10-16T02:46:17;99800.94;;;10.88;62.63
40872;BME280;26591;43.264;26.940;2022-10-16T02:48:43;99800.59;;;11.01;62.55
40872;BME280;26591;43.264;26.940;2022-10-16T02:51:09;99804.00;;;10.93;62.88
40872;BME280;26591;43.264;26.940;2022-10-16T02:53:34;99802.56;;;10.99;62.71
40872;BME280;26591;43.264;26.940;2022-10-16T02:56:00;99813.31;;;11.16;62.64
40872;BME280;26591;43.264;26.940;2022-10-16T02:58:25;99811.66;;;11.14;61.99
40872;BME280;26591;43.264;26.940;2022-10-16T03:00:51;99808.44;;;10.93;62.65
40872;BME280;26591;43.264;26.940;2022-10-16T03:03:16;99811.78;;;10.95;62.78
40872;BME280;26591;43.264;26.940;2022-10-16T03:05:43;99812.69;;;11.04;62.17
40872;BME280;26591;43.264;26.940;2022-10-16T03:08:11;99816.38;;;11.11;62.30
40872;BME280;26591;43.264;26.940;2022-10-16T03:10:37;99812.63;;;11.13;62.25
40872;BME280;26591;43.264;26.940;2022-10-16T03:13:02;99822.38;;;11.13;62.44
40872;BME280;26591;43.264;26.940;2022-10-16T03:15:28;99820.66;;;11.22;61.85
40872;BME280;26591;43.264;26.940;2022-10-16T03:17:57;99819.44;;;11.16;62.24
40872;BME280;26591;43.264;26.940;2022-10-16T03:20:23;99811.66;;;11.14;62.33
40872;BME280;26591;43.264;26.940;2022-10-16T03:22:48;99824.44;;;11.19;61.79
40872;BME280;26591;43.264;26.940;2022-10-16T03:25:14;99814.50;;;11.03;62.55
40872;BME280;26591;43.264;26.940;2022-10-16T03:27:39;99820.19;;;11.08;62.93
40872;BME280;26591;43.264;26.940;2022-10-16T03:30:05;99815.03;;;11.07;63.05
40872;BME280;26591;43.264;26.940;2022-10-16T03:32:31;99820.25;;;10.98;63.51
40872;BME280;26591;43.264;26.940;2022-10-16T03:34:56;99819.66;;;10.87;64.19
40872;BME280;26591;43.264;26.940;2022-10-16T03:37:22;99816.66;;;10.72;63.86
40872;BME280;26591;43.264;26.940;2022-10-16T03:39:50;99824.78;;;10.60;64.68
40872;BME280;26591;43.264;26.940;2022-10-16T03:42:15;99825.03;;;10.67;64.29
40872;BME280;26591;43.264;26.940;2022-10-16T03:44:41;99823.81;;;10.61;64.65
40872;BME280;26591;43.264;26.940;2022-10-16T03:47:06;99825.56;;;10.71;64.79
40872;BME280;26591;43.264;26.940;2022-10-16T03:49:31;99821.22;;;9.94;66.13
40872;BME280;26591;43.264;26.940;2022-10-16T03:51:57;99821.84;;;9.58;67.97
40872;BME280;26591;43.264;26.940;2022-10-16T03:54:23;99825.72;;;9.64;68.46
40872;BME280;26591;43.264;26.940;2022-10-16T03:56:48;99824.34;;;9.70;68.08
40872;BME280;26591;43.264;26.940;2022-10-16T03:59:14;99822.13;;;9.55;68.87
40872;BME280;26591;43.264;26.940;2022-10-16T04:01:40;99827.53;;;9.73;68.13
40872;BME280;26591;43.264;26.940;2022-10-16T04:04:06;99827.81;;;9.70;69.19
40872;BME280;26591;43.264;26.940;2022-10-16T04:06:31;99831.84;;;9.65;68.71
40872;BME280;26591;43.264;26.940;2022-10-16T04:08:57;99817.28;;;9.41;69.84
40872;BME280;26591;43.264;26.940;2022-10-16T04:11:25;99823.06;;;9.64;69.57
40872;BME280;26591;43.264;26.940;2022-10-16T04:13:50;99830.31;;;9.72;69.46
40872;BME280;26591;43.264;26.940;2022-10-16T04:16:16;99827.00;;;9.40;69.99
40872;BME280;26591;43.264;26.940;2022-10-16T04:18:41;99824.22;;;9.32;70.57
40872;BME280;26591;43.264;26.940;2022-10-16T04:21:07;99830.59;;;9.10;71.21
40872;BME280;26591;43.264;26.940;2022-10-16T04:23:33;99828.34;;;8.85;72.09
40872;BME280;26591;43.264;26.940;2022-10-16T04:25:59;99834.88;;;8.91;72.05
40872;BME280;26591;43.264;26.940;2022-10-16T04:28:25;99833.06;;;9.01;71.67
40872;BME280;26591;43.264;26.940;2022-10-16T04:30:51;99836.81;;;8.48;72.27
40872;BME280;26591;43.264;26.940;2022-10-16T04:33:16;99839.13;;;8.73;72.34
40872;BME280;26591;43.264;26.940;2022-10-16T04:35:42;99840.34;;;8.68;72.41
40872;BME280;26591;43.264;26.940;2022-10-16T04:38:07;99848.00;;;8.72;72.42
40872;BME280;26591;43.264;26.940;2022-10-16T04:40:33;99852.63;;;8.79;72.74
40872;BME280;26591;43.264;26.940;2022-10-16T04:43:01;99859.53;;;9.31;72.01
40872;BME280;26591;43.264;26.940;2022-10-16T04:45:26;99856.88;;;9.80;71.44
40872;BME280;26591;43.264;26.940;2022-10-16T04:47:52;99856.72;;;10.59;70.34
40872;BME280;26591;43.264;26.940;2022-10-16T04:50:17;99857.97;;;11.10;67.95
40872;BME280;26591;43.264;26.940;2022-10-16T04:52:43;99861.31;;;11.67;67.03
40872;BME280;26591;43.264;26.940;2022-10-16T04:55:08;99863.44;;;12.08;64.85
40872;BME280;26591;43.264;26.940;2022-10-16T04:57:34;99870.09;;;12.64;63.64
40872;BME280;26591;43.264;26.940;2022-10-16T04:59:59;99866.25;;;13.10;61.74
40872;BME280;26591;43.264;26.940;2022-10-16T05:02:25;99872.50;;;13.52;60.01
40872;BME280;26591;43.264;26.940;2022-10-16T05:04:51;99868.53;;;13.97;58.01
40872;BME280;26591;43.264;26.940;2022-10-16T05:07:17;99866.97;;;14.36;57.85
40872;BME280;26591;43.264;26.940;2022-10-16T05:09:42;99875.69;;;14.70;56.30
40872;BME280;26591;43.264;26.940;2022-10-16T05:12:08;99873.56;;;15.05;55.35
40872;BME280;26591;43.264;26.940;2022-10-16T05:14:34;99876.38;;;15.35;53.85
40872;BME280;26591;43.264;26.940;2022-10-16T05:17:00;99881.56;;;15.75;53.28
40872;BME280;26591;43.264;26.940;2022-10-16T05:19:26;99884.22;;;16.36;51.12
40872;BME280;26591;43.264;26.940;2022-10-16T05:21:51;99892.59;;;16.93;49.80
40872;BME280;26591;43.264;26.940;2022-10-16T05:24:26;99891.34;;;17.26;49.05
40872;BME280;26591;43.264;26.940;2022-10-16T05:26:52;99890.22;;;17.78;47.48
40872;BME280;26591;43.264;26.940;2022-10-16T05:29:18;99893.94;;;18.27;46.58
40872;BME280;26591;43.264;26.940;2022-10-16T05:31:43;99902.88;;;18.76;44.91
40872;BME280;26591;43.264;26.940;2022-10-16T05:34:09;99906.13;;;19.14;44.49
40872;BME280;26591;43.264;26.940;2022-10-16T05:36:34;99911.66;;;19.67;43.56
40872;BME280;26591;43.264;26.940;2022-10-16T05:39:00;99907.38;;;19.87;42.47
40872;BME280;26591;43.264;26.940;2022-10-16T05:41:25;99921.16;;;20.37;42.68
40872;BME280;26591;43.264;26.940;2022-10-16T05:43:52;99924.69;;;20.38;40.94
40872;BME280;26591;43.264;26.940;2022-10-16T05:46:17;99925.06;;;20.62;40.49
40872;BME280;26591;43.264;26.940;2022-10-16T05:48:43;99927.38;;;20.51;40.34
40872;BME280;26591;43.264;26.940;2022-10-16T05:51:13;99925.06;;;20.62;40.51
40872;BME280;26591;43.264;26.940;2022-10-16T05:53:42;99931.16;;;21.09;41.09
40872;BME280;26591;43.264;26.940;2022-10-16T05:56:10;99936.97;;;21.45;40.98
40872;BME280;26591;43.264;26.940;2022-10-16T05:58:37;99929.94;;;21.83;37.66
40872;BME280;26591;43.264;26.940;2022-10-16T06:01:14;99930.31;;;21.86;37.92
40872;BME280;26591;43.264;26.940;2022-10-16T06:03:41;99936.94;;;21.90;37.86
40872;BME280;26591;43.264;26.940;2022-10-16T06:06:11;99939.09;;;22.07;37.80
40872;BME280;26591;43.264;26.940;2022-10-16T06:08:37;99942.59;;;22.07;36.90
40872;BME280;26591;43.264;26.940;2022-10-16T06:11:04;99941.53;;;22.08;37.27
40872;BME280;26591;43.264;26.940;2022-10-16T06:13:30;99942.72;;;22.45;37.10
40872;BME280;26591;43.264;26.940;2022-10-16T06:16:00;99946.47;;;22.81;36.63
40872;BME280;26591;43.264;26.940;2022-10-16T06:18:27;99945.38;;;22.70;36.84
40872;BME280;26591;43.264;26.940;2022-10-16T06:20:53;99954.56;;;22.81;37.08
40872;BME280;26591;43.264;26.940;2022-10-16T06:23:19;99950.03;;;22.81;35.96
40872;BME280;26591;43.264;26.940;2022-10-16T06:25:45;99958.72;;;22.83;36.26
40872;BME280;26591;43.264;26.940;2022-10-16T06:28:11;99960.41;;;23.15;36.21
40872;BME280;26591;43.264;26.940;2022-10-16T06:30:36;99965.22;;;23.13;37.42
40872;BME280;26591;43.264;26.940;2022-10-16T06:33:01;99970.28;;;23.28;37.01
40872;BME280;26591;43.264;26.940;2022-10-16T06:35:27;99965.63;;;21.78;40.07
40872;BME280;26591;43.264;26.940;2022-10-16T06:37:54;99962.28;;;20.78;41.17
40872;BME280;26591;43.264;26.940;2022-10-16T06:40:20;99966.41;;;19.80;41.94
40872;BME280;26591;43.264;26.940;2022-10-16T06:42:45;99962.41;;;19.42;43.90
40872;BME280;26591;43.264;26.940;2022-10-16T06:45:11;99969.44;;;19.50;42.91
40872;BME280;26591;43.264;26.940;2022-10-16T06:47:37;99987.66;;;19.13;44.32
40872;BME280;26591;43.264;26.940;2022-10-16T06:50:03;99982.97;;;18.86;44.59
40872;BME280;26591;43.264;26.940;2022-10-16T06:52:32;99996.56;;;18.85;45.54
40872;BME280;26591;43.264;26.940;2022-10-16T06:54:58;99987.22;;;17.80;47.35
40872;BME280;26591;43.264;26.940;2022-10-16T06:57:24;100000.41;;;18.19;46.50
40872;BME280;26591;43.264;26.940;2022-10-16T06:59:49;100002.63;;;18.65;45.79
40872;BME280;26591;43.264;26.940;2022-10-16T07:02:15;99999.22;;;17.99;45.94
40872;BME280;26591;43.264;26.940;2022-10-16T07:04:40;100004.94;;;17.60;47.30
40872;BME280;26591;43.264;26.940;2022-10-16T07:07:06;100002.97;;;17.32;47.55
40872;BME280;26591;43.264;26.940;2022-10-16T07:09:31;100006.66;;;17.01;48.63
40872;BME280;26591;43.264;26.940;2022-10-16T07:11:57;100006.84;;;18.03;46.58
40872;BME280;26591;43.264;26.940;2022-10-16T07:14:22;100012.34;;;18.66;45.94
40872;BME280;26591;43.264;26.940;2022-10-16T07:16:48;100007.56;;;19.25;44.33
40872;BME280;26591;43.264;26.940;2022-10-16T07:19:14;100003.66;;;19.90;42.86
40872;BME280;26591;43.264;26.940;2022-10-16T07:21:42;100008.44;;;20.15;42.52
40872;BME280;26591;43.264;26.940;2022-10-16T07:24:13;100010.72;;;20.18;42.47
40872;BME280;26591;43.264;26.940;2022-10-16T07:26:39;100003.47;;;20.05;41.48
40872;BME280;26591;43.264;26.940;2022-10-16T07:29:07;100004.50;;;20.10;42.66
40872;BME280;26591;43.264;26.940;2022-10-16T07:31:33;100007.41;;;20.56;41.54
40872;BME280;26591;43.264;26.940;2022-10-16T07:33:59;100007.59;;;20.88;39.77
40872;BME280;26591;43.264;26.940;2022-10-16T07:36:25;100001.09;;;21.16;39.48
40872;BME280;26591;43.264;26.940;2022-10-16T07:38:51;100003.63;;;20.97;40.63
40872;BME280;26591;43.264;26.940;2022-10-16T07:41:19;99992.25;;;19.81;40.30
40872;BME280;26591;43.264;26.940;2022-10-16T07:43:50;99996.66;;;20.02;39.16
40872;BME280;26591;43.264;26.940;2022-10-16T07:46:16;100003.22;;;19.24;42.94
40872;BME280;26591;43.264;26.940;2022-10-16T07:48:42;100010.63;;;19.22;43.27
40872;BME280;26591;43.264;26.940;2022-10-16T07:51:11;100002.31;;;19.10;44.10
40872;BME280;26591;43.264;26.940;2022-10-16T07:53:38;100001.47;;;18.03;45.56
40872;BME280;26591;43.264;26.940;2022-10-16T07:56:05;100006.38;;;18.42;45.49
40872;BME280;26591;43.264;26.940;2022-10-16T07:58:32;100002.47;;;17.28;47.66
40872;BME280;26591;43.264;26.940;2022-10-16T08:00:58;100007.13;;;17.71;47.16
40872;BME280;26591;43.264;26.940;2022-10-16T08:03:24;100016.75;;;18.81;45.23
40872;BME280;26591;43.264;26.940;2022-10-16T08:05:50;100013.97;;;17.95;46.11
40872;BME280;26591;43.264;26.940;2022-10-16T08:08:16;100012.53;;;17.56;46.09
40872;BME280;26591;43.264;26.940;2022-10-16T08:10:42;100019.03;;;17.90;45.64
40872;BME280;26591;43.264;26.940;2022-10-16T08:13:08;100028.72;;;18.28;46.01
40872;BME280;26591;43.264;26.940;2022-10-16T08:15:33;100025.44;;;18.54;45.15
40872;BME280;26591;43.264;26.940;2022-10-16T08:18:03;100035.19;;;19.26;43.02
40872;BME280;26591;43.264;26.940;2022-10-16T08:20:31;100024.03;;;19.22;42.82
40872;BME280;26591;43.264;26.940;2022-10-16T08:22:57;100025.44;;;18.54;44.42
40872;BME280;26591;43.264;26.940;2022-10-16T08:25:23;100018.47;;;18.60;43.68
40872;BME280;26591;43.264;26.940;2022-10-16T08:27:49;100003.34;;;18.81;43.79
40872;BME280;26591;43.264;26.940;2022-10-16T08:30:17;100014.75;;;18.61;42.14
40872;BME280;26591;43.264;26.940;2022-10-16T08:32:43;100015.81;;;18.38;41.32
40872;BME280;26591;43.264;26.940;2022-10-16T08:35:10;100016.22;;;18.64;40.63
40872;BME280;26591;43.264;26.940;2022-10-16T08:37:36;100007.78;;;18.38;40.04
40872;BME280;26591;43.264;26.940;2022-10-16T08:40:04;100012.31;;;18.16;39.70
40872;BME280;26591;43.264;26.940;2022-10-16T08:43:03;100005.72;;;18.40;40.06
40872;BME280;26591;43.264;26.940;2022-10-16T08:48:35;100005.69;;;18.62;39.90
40872;BME280;26591;43.264;26.940;2022-10-16T08:51:03;100013.81;;;18.19;39.89
40872;BME280;26591;43.264;26.940;2022-10-16T08:55:55;100014.13;;;18.59;39.36
40872;BME280;26591;43.264;26.940;2022-10-16T08:58:22;100021.59;;;18.35;39.54
40872;BME280;26591;43.264;26.940;2022-10-16T09:00:59;100023.63;;;18.33;39.88
40872;BME280;26591;43.264;26.940;2022-10-16T09:09:25;100019.81;;;18.21;40.00
40872;BME280;26591;43.264;26.940;2022-10-16T09:12:24;100017.97;;;18.50;39.47
40872;BME280;26591;43.264;26.940;2022-10-16T09:17:44;100019.88;;;18.56;39.74
40872;BME280;26591;43.264;26.940;2022-10-16T09:22:43;100020.78;;;18.41;39.49
40872;BME280;26591;43.264;26.940;2022-10-16T09:25:18;100012.91;;;18.61;39.49
40872;BME280;26591;43.264;26.940;2022-10-16T09:27:47;100002.44;;;18.95;39.35
40872;BME280;26591;43.264;26.940;2022-10-16T09:30:15;100007.31;;;18.91;38.68
40872;BME280;26591;43.264;26.940;2022-10-16T09:32:44;100009.94;;;19.06;39.13
40872;BME280;26591;43.264;26.940;2022-10-16T09:35:15;100009.13;;;19.13;39.07
40872;BME280;26591;43.264;26.940;2022-10-16T09:37:44;100004.09;;;18.96;37.86
40872;BME280;26591;43.264;26.940;2022-10-16T09:45:40;99992.88;;;18.92;38.86
40872;BME280;26591;43.264;26.940;2022-10-16T09:48:19;100000.78;;;18.94;38.14
40872;BME280;26591;43.264;26.940;2022-10-16T09:50:55;100004.66;;;19.27;37.52
40872;BME280;26591;43.264;26.940;2022-10-16T09:53:21;99999.13;;;19.42;37.68
40872;BME280;26591;43.264;26.940;2022-10-16T09:55:49;100006.84;;;19.58;37.62
40872;BME280;26591;43.264;26.940;2022-10-16T09:58:15;99990.25;;;19.34;37.95
40872;BME280;26591;43.264;26.940;2022-10-16T10:00:42;99996.28;;;19.01;38.90
40872;BME280;26591;43.264;26.940;2022-10-16T10:03:41;99984.41;;;19.17;39.04
40872;BME280;26591;43.264;26.940;2022-10-16T10:06:33;99984.81;;;19.21;37.81
40872;BME280;26591;43.264;26.940;2022-10-16T10:09:26;99977.53;;;18.44;38.96
40872;BME280;26591;43.264;26.940;2022-10-16T10:12:01;99990.13;;;18.44;38.90
40872;BME280;26591;43.264;26.940;2022-10-16T10:17:25;100002.13;;;18.55;39.11
40872;BME280;26591;43.264;26.940;2022-10-16T10:20:29;99998.13;;;18.72;38.87
40872;BME280;26591;43.264;26.940;2022-10-16T10:22:46;99992.81;;;19.08;38.61
40872;BME280;26591;43.264;26.940;2022-10-16T10:30:48;99999.94;;;19.97;35.98
40872;BME280;26591;43.264;26.940;2022-10-16T10:47:01;99978.31;;;19.57;36.48
40872;BME280;26591;43.264;26.940;2022-10-16T10:49:55;99970.84;;;19.39;35.78
40872;BME280;26591;43.264;26.940;2022-10-16T10:52:37;99966.28;;;19.26;36.32
40872;BME280;26591;43.264;26.940;2022-10-16T11:01:12;99966.06;;;19.96;35.36
40872;BME280;26591;43.264;26.940;2022-10-16T11:06:30;99958.00;;;19.28;36.13
40872;BME280;26591;43.264;26.940;2022-10-16T11:09:03;99950.94;;;19.13;35.38
40872;BME280;26591;43.264;26.940;2022-10-16T11:11:41;99959.41;;;19.17;35.56
40872;BME280;26591;43.264;26.940;2022-10-16T11:14:26;99952.28;;;19.38;35.03
40872;BME280;26591;43.264;26.940;2022-10-16T11:17:13;99960.53;;;19.49;35.17
40872;BME280;26591;43.264;26.940;2022-10-16T11:22:48;99958.34;;;19.73;34.63
40872;BME280;26591;43.264;26.940;2022-10-16T11:25:22;99963.28;;;19.63;34.60
40872;BME280;26591;43.264;26.940;2022-10-16T11:30:43;99956.50;;;19.12;35.14
40872;BME280;26591;43.264;26.940;2022-10-16T11:38:58;99965.78;;;19.78;35.19
40872;BME280;26591;43.264;26.940;2022-10-16T11:46:34;99957.50;;;19.73;35.45
40872;BME280;26591;43.264;26.940;2022-10-16T11:49:15;99965.84;;;20.18;34.44
40872;BME280;26591;43.264;26.940;2022-10-16T11:52:06;99967.50;;;19.92;35.11
40872;BME280;26591;43.264;26.940;2022-10-16T11:57:14;99965.13;;;19.62;34.67
40872;BME280;26591;43.264;26.940;2022-10-16T11:59:57;99974.31;;;20.08;34.69
40872;BME280;26591;43.264;26.940;2022-10-16T12:08:17;99974.88;;;19.77;33.66
40872;BME280;26591;43.264;26.940;2022-10-16T12:10:45;99984.88;;;19.96;34.22
40872;BME280;26591;43.264;26.940;2022-10-16T12:13:35;99983.00;;;19.97;33.30
40872;BME280;26591;43.264;26.940;2022-10-16T12:16:21;99984.78;;;19.70;33.34
40872;BME280;26591;43.264;26.940;2022-10-16T12:18:47;99981.16;;;20.04;33.17
40872;BME280;26591;43.264;26.940;2022-10-16T12:21:15;99985.28;;;20.20;33.57
40872;BME280;26591;43.264;26.940;2022-10-16T12:26:24;99988.38;;;20.17;33.65
40872;BME280;26591;43.264;26.940;2022-10-16T12:28:50;99992.72;;;20.25;33.21
40872;BME280;26591;43.264;26.940;2022-10-16T12:31:17;99983.22;;;20.42;33.04
40872;BME280;26591;43.264;26.940;2022-10-16T12:36:46;99979.91;;;20.47;33.28
40872;BME280;26591;43.264;26.940;2022-10-16T12:39:46;99985.06;;;20.69;34.79
40872;BME280;26591;43.264;26.940;2022-10-16T12:42:39;99975.72;;;20.85;32.85
40872;BME280;26591;43.264;26.940;2022-10-16T12:47:50;99977.19;;;19.87;32.97
40872;BME280;26591;43.264;26.940;2022-10-16T12:50:36;99973.13;;;19.35;33.88
40872;BME280;26591;43.264;26.940;2022-10-16T12:53:16;99975.03;;;19.55;33.86
40872;BME280;26591;43.264;26.940;2022-10-16T12:58:48;99983.44;;;19.32;33.87
40872;BME280;26591;43.264;26.940;2022-10-16T13:23:34;99995.78;;;19.88;32.92
40872;BME280;26591;43.264;26.940;2022-10-16T13:28:46;99996.22;;;19.30;33.64
40872;BME280;26591;43.264;26.940;2022-10-16T13:31:19;99995.41;;;19.43;33.55
40872;BME280;26591;43.264;26.940;2022-10-16T13:33:49;99998.41;;;19.68;33.45
40872;BME280;26591;43.264;26.940;2022-10-16T13:36:45;99994.69;;;19.69;33.18
40872;BME280;26591;43.264;26.940;2022-10-16T13:41:57;99992.19;;;19.54;32.91
40872;BME280;26591;43.264;26.940;2022-10-16T13:44:40;99994.41;;;19.44;32.43
40872;BME280;26591;43.264;26.940;2022-10-16T13:47:16;99986.13;;;19.32;32.43
40872;BME280;26591;43.264;26.940;2022-10-16T13:49:41;99991.34;;;19.05;32.72
40872;BME280;26591;43.264;26.940;2022-10-16T13:52:20;99989.25;;;19.42;32.69
40872;BME280;26591;43.264;26.940;2022-10-16T13:54:45;99991.25;;;19.27;33.04
40872;BME280;26591;43.264;26.940;2022-10-16T13:57:14;99997.22;;;19.22;33.29
40872;BME280;26591;43.264;26.940;2022-10-16T13:59:39;100000.59;;;18.67;33.37
40872;BME280;26591;43.264;26.940;2022-10-16T14:04:54;100000.63;;;19.02;33.94
40872;BME280;26591;43.264;26.940;2022-10-16T14:07:31;100005.94;;;18.96;33.27
40872;BME280;26591;43.264;26.940;2022-10-16T14:10:05;99998.94;;;18.66;33.24
40872;BME280;26591;43.264;26.940;2022-10-16T14:12:31;100000.78;;;18.37;34.15
40872;BME280;26591;43.264;26.940;2022-10-16T14:14:58;100011.06;;;18.62;33.99
40872;BME280;26591;43.264;26.940;2022-10-16T14:17:32;100008.22;;;18.42;33.97
40872;BME280;26591;43.264;26.940;2022-10-16T14:20:03;100021.19;;;18.67;33.48
40872;BME280;26591;43.264;26.940;2022-10-16T14:22:35;100019.78;;;18.71;33.26
40872;BME280;26591;43.264;26.940;2022-10-16T14:30:31;100015.44;;;17.98;34.96
40872;BME280;26591;43.264;26.940;2022-10-16T14:33:03;100017.00;;;18.07;35.10
40872;BME280;26591;43.264;26.940;2022-10-16T14:35:34;100018.66;;;18.08;34.30
40872;BME280;26591;43.264;26.940;2022-10-16T14:38:02;100026.00;;;17.99;34.84
40872;BME280;26591;43.264;26.940;2022-10-16T14:40:33;100024.78;;;17.87;34.88
40872;BME280;26591;43.264;26.940;2022-10-16T14:43:01;100025.16;;;17.99;34.48
40872;BME280;26591;43.264;26.940;2022-10-16T14:45:30;100032.72;;;17.95;34.36
40872;BME280;26591;43.264;26.940;2022-10-16T14:48:01;100027.00;;;17.83;34.55
40872;BME280;26591;43.264;26.940;2022-10-16T14:50:28;100020.13;;;17.74;35.54
40872;BME280;26591;43.264;26.940;2022-10-16T14:52:54;100027.88;;;17.69;34.98
40872;BME280;26591;43.264;26.940;2022-10-16T14:55:20;100026.78;;;17.63;35.93
40872;BME280;26591;43.264;26.940;2022-10-16T14:57:46;100034.19;;;17.61;35.73
40872;BME280;26591;43.264;26.940;2022-10-16T15:00:18;100035.59;;;17.57;36.81
40872;BME280;26591;43.264;26.940;2022-10-16T15:02:45;100030.63;;;17.39;36.31
40872;BME280;26591;43.264;26.940;2022-10-16T15:05:25;100033.97;;;17.26;37.37
40872;BME280;26591;43.264;26.940;2022-10-16T15:07:52;100033.13;;;17.11;36.99
40872;BME280;26591;43.264;26.940;2022-10-16T15:10:20;100036.97;;;16.93;37.80
40872;BME280;26591;43.264;26.940;2022-10-16T15:12:46;100027.22;;;17.00;37.49
40872;BME280;26591;43.264;26.940;2022-10-16T15:17:47;100035.81;;;16.72;38.40